createdAt,value
2023-04-02T00:00:57.641Z,57.46
2023-04-02T00:01:57.729Z,57.26
2023-04-02T00:02:57.876Z,56.97
2023-04-02T00:03:57.777Z,57.35
2023-04-02T00:04:57.780Z,56.84
2023-04-02T00:05:57.864Z,57.62
2023-04-02T00:06:57.867Z,57.37
2023-04-02T00:07:57.872Z,57.27
2023-04-02T00:08:57.916Z,57.58
2023-04-02T00:09:57.929Z,57.83
2023-04-02T00:10:57.912Z,57.28
2023-04-02T00:11:57.982Z,57.69
2023-04-02T00:12:57.986Z,57.92
2023-04-02T00:13:58.016Z,57.50
2023-04-02T00:14:58.099Z,56.96
2023-04-02T00:15:58.206Z,57.39
2023-04-02T00:16:58.095Z,57.48
2023-04-02T00:17:58.177Z,56.94
2023-04-02T00:18:58.227Z,56.94
2023-04-02T00:19:58.287Z,56.83
2023-04-02T00:20:58.221Z,56.85
2023-04-02T00:21:58.229Z,56.40
2023-04-02T00:22:58.266Z,56.15
2023-04-02T00:23:58.316Z,56.59
2023-04-02T00:24:58.361Z,56.43
2023-04-02T00:25:58.372Z,56.60
2023-04-02T00:26:58.400Z,56.30
2023-04-02T00:27:58.412Z,55.97
2023-04-02T00:28:58.459Z,55.72
2023-04-02T00:29:58.472Z,56.13
2023-04-02T00:30:58.495Z,56.05
2023-04-02T00:31:58.547Z,55.94
2023-04-02T00:32:58.579Z,55.76
2023-04-02T00:33:58.620Z,55.37
2023-04-02T00:34:58.620Z,55.58
2023-04-02T00:35:58.686Z,55.62
2023-04-02T00:36:58.678Z,55.65
2023-04-02T00:37:58.706Z,55.52
2023-04-02T00:38:58.704Z,55.63
2023-04-02T00:39:58.753Z,55.92
2023-04-02T00:40:58.801Z,55.54
2023-04-02T00:41:58.843Z,56.06
2023-04-02T00:42:58.848Z,55.85
2023-04-02T00:43:58.831Z,55.70
2023-04-02T00:44:58.891Z,55.79
2023-04-02T00:45:58.940Z,55.99
2023-04-02T00:46:58.946Z,56.24
2023-04-02T00:47:59.020Z,56.82
2023-04-02T00:48:59.010Z,57.03
2023-04-02T00:49:59.081Z,57.17
2023-04-02T00:50:59.119Z,56.73
2023-04-02T00:51:59.146Z,57.44
2023-04-02T00:52:59.176Z,57.66
2023-04-02T00:53:59.187Z,57.46
2023-04-02T00:54:59.196Z,58.14
2023-04-02T00:55:59.232Z,57.97
2023-04-02T00:56:59.305Z,57.88
2023-04-02T00:57:59.287Z,58.00
2023-04-02T00:58:59.316Z,58.36
2023-04-02T00:59:59.381Z,58.91
2023-04-02T01:00:59.401Z,58.83
2023-04-02T01:01:59.392Z,58.68
2023-04-02T01:02:59.470Z,58.68
2023-04-02T01:03:59.468Z,58.48
2023-04-02T01:04:59.515Z,58.66
2023-04-02T01:05:59.560Z,58.47
2023-04-02T01:06:59.616Z,58.38
2023-04-02T01:07:59.635Z,59.02
2023-04-02T01:08:59.649Z,59.22
2023-04-02T01:09:59.676Z,59.12
2023-04-02T01:10:59.729Z,58.86
2023-04-02T01:11:59.766Z,59.10
2023-04-02T01:12:59.799Z,58.87
2023-04-02T01:13:59.814Z,58.63
2023-04-02T01:14:59.846Z,57.95
2023-04-02T01:15:59.928Z,57.93
2023-04-02T01:16:59.917Z,58.53
2023-04-02T01:17:59.979Z,58.16
2023-04-02T01:18:59.949Z,58.33
2023-04-02T01:19:59.949Z,58.34
2023-04-02T01:21:00.031Z,58.08
2023-04-02T01:22:00.011Z,57.49
2023-04-02T01:23:00.037Z,57.58
2023-04-02T01:24:00.048Z,57.21
2023-04-02T01:25:00.119Z,57.14
2023-04-02T01:26:00.093Z,56.80
2023-04-02T01:27:00.146Z,56.71
2023-04-02T01:28:00.139Z,56.86
2023-04-02T01:29:00.184Z,57.10
2023-04-02T01:30:00.188Z,57.81
2023-04-02T01:31:00.286Z,58.40
2023-04-02T01:32:00.249Z,58.49
2023-04-02T01:33:00.356Z,59.29
2023-04-02T01:34:00.346Z,59.33
2023-04-02T01:35:00.392Z,58.91
2023-04-02T01:36:00.478Z,59.28
2023-04-02T01:37:00.444Z,59.16
2023-04-02T01:38:00.450Z,59.10
2023-04-02T01:39:00.487Z,59.18
2023-04-02T01:40:00.490Z,59.41
2023-04-02T01:41:00.513Z,59.49
2023-04-02T01:42:00.540Z,59.14
2023-04-02T01:43:00.535Z,59.30
2023-04-02T01:44:00.579Z,59.14
2023-04-02T01:45:00.581Z,58.98
2023-04-02T01:46:00.649Z,59.19
2023-04-02T01:47:00.635Z,59.01
2023-04-02T01:48:00.729Z,58.52
2023-04-02T01:49:00.712Z,58.51
2023-04-02T01:50:00.757Z,58.43
2023-04-02T01:51:00.742Z,58.35
2023-04-02T01:52:00.834Z,59.53
2023-04-02T01:53:00.835Z,59.24
2023-04-02T01:54:00.895Z,59.57
2023-04-02T01:55:00.891Z,59.70
2023-04-02T01:56:00.942Z,59.84
2023-04-02T01:57:00.975Z,59.80
2023-04-02T01:58:00.974Z,59.82
2023-04-02T01:59:01.077Z,60.15
2023-04-02T02:00:01.051Z,59.87
2023-04-02T02:01:01.113Z,59.58
2023-04-02T02:02:01.138Z,59.73
2023-04-02T02:03:01.173Z,59.51
2023-04-02T02:04:01.106Z,59.42
2023-04-02T02:05:01.136Z,59.03
2023-04-02T02:06:01.179Z,58.68
2023-04-02T02:07:01.586Z,58.64
2023-04-02T02:08:01.267Z,58.34
2023-04-02T02:09:01.300Z,58.14
2023-04-02T02:10:01.353Z,58.32
2023-04-02T02:11:01.391Z,58.51
2023-04-02T02:12:01.409Z,58.33
2023-04-02T02:13:01.433Z,58.00
2023-04-02T02:14:01.479Z,58.20
2023-04-02T02:15:01.536Z,58.10
2023-04-02T02:16:01.541Z,57.82
2023-04-02T02:17:01.544Z,57.68
2023-04-02T02:18:01.578Z,57.69
2023-04-02T02:19:01.612Z,57.32
2023-04-02T02:20:01.633Z,57.27
2023-04-02T02:21:01.626Z,58.07
2023-04-02T02:22:01.660Z,58.28
2023-04-02T02:23:01.674Z,59.00
2023-04-02T02:24:01.707Z,59.26
2023-04-02T02:25:01.743Z,59.53
2023-04-02T02:26:01.774Z,59.64
2023-04-02T02:27:01.829Z,59.96
2023-04-02T02:28:01.855Z,59.92
2023-04-02T02:29:01.906Z,60.32
2023-04-02T02:30:01.922Z,60.53
2023-04-02T02:31:01.948Z,60.40
2023-04-02T02:32:01.986Z,60.30
2023-04-02T02:33:02.084Z,60.60
2023-04-02T02:34:02.039Z,60.69
2023-04-02T02:35:02.082Z,60.44
2023-04-02T02:36:02.160Z,60.70
2023-04-02T02:37:02.135Z,60.60
2023-04-02T02:38:02.162Z,60.47
2023-04-02T02:39:02.212Z,60.76
2023-04-02T02:40:02.252Z,61.54
2023-04-02T02:41:02.230Z,61.70
2023-04-02T02:42:02.269Z,62.20
2023-04-02T02:43:02.319Z,62.43
2023-04-02T02:44:02.331Z,61.96
2023-04-02T02:45:02.410Z,61.70
2023-04-02T02:46:02.467Z,61.60
2023-04-02T02:47:02.585Z,61.27
2023-04-02T02:48:02.493Z,60.90
2023-04-02T02:49:02.495Z,60.67
2023-04-02T02:50:02.489Z,60.58
2023-04-02T02:51:02.543Z,60.31
2023-04-02T02:52:02.540Z,60.42
2023-04-02T02:53:02.613Z,60.45
2023-04-02T02:54:02.638Z,59.90
2023-04-02T02:55:02.701Z,59.89
2023-04-02T02:56:02.764Z,59.63
2023-04-02T02:57:02.749Z,59.45
2023-04-02T02:58:02.772Z,58.96
2023-04-02T02:59:02.780Z,58.59
2023-04-02T03:00:02.787Z,58.24
2023-04-02T03:01:02.827Z,58.03
2023-04-02T03:02:02.842Z,58.25
2023-04-02T03:03:02.916Z,58.06
2023-04-02T03:04:03.053Z,58.05
2023-04-02T03:05:02.951Z,58.05
2023-04-02T03:06:02.999Z,57.95
2023-04-02T03:07:03.024Z,58.23
2023-04-02T03:08:03.069Z,58.62
2023-04-02T03:09:03.081Z,59.16
2023-04-02T03:10:03.111Z,59.52
2023-04-02T03:11:03.100Z,60.00
2023-04-02T03:12:03.153Z,60.44
2023-04-02T03:13:03.182Z,60.34
2023-04-02T03:14:03.225Z,60.26
2023-04-02T03:15:03.248Z,60.03
2023-04-02T03:16:03.383Z,59.72
2023-04-02T03:17:03.373Z,59.41
2023-04-02T03:18:03.421Z,59.46
2023-04-02T03:19:03.456Z,59.38
2023-04-02T03:20:03.486Z,59.81
2023-04-02T03:21:03.551Z,60.30
2023-04-02T03:22:03.562Z,60.04
2023-04-02T03:23:03.576Z,60.07
2023-04-02T03:24:03.591Z,60.07
2023-04-02T03:25:03.615Z,60.33
2023-04-02T03:26:03.655Z,60.55
2023-04-02T03:27:03.716Z,60.71
2023-04-02T03:28:03.741Z,60.71
2023-04-02T03:29:03.782Z,60.29
2023-04-02T03:30:03.780Z,59.93
2023-04-02T03:31:03.882Z,59.66
2023-04-02T03:32:03.789Z,59.13
2023-04-02T03:33:03.855Z,58.92
2023-04-02T03:34:03.921Z,58.65
2023-04-02T03:35:03.920Z,58.94
2023-04-02T03:36:03.962Z,58.94
2023-04-02T03:37:03.977Z,59.04
2023-04-02T03:38:03.985Z,59.05
2023-04-02T03:39:04.043Z,59.68
2023-04-02T03:40:04.040Z,60.29
2023-04-02T03:41:04.085Z,61.00
2023-04-02T03:42:04.122Z,61.73
2023-04-02T03:43:04.181Z,61.51
2023-04-02T03:44:04.154Z,61.70
2023-04-02T03:45:04.182Z,61.21
2023-04-02T03:46:04.292Z,60.82
2023-04-02T03:47:04.303Z,60.33
2023-04-02T03:48:04.324Z,59.86
2023-04-02T03:49:04.305Z,59.79
2023-04-02T03:50:04.351Z,59.65
2023-04-02T03:51:04.380Z,59.41
2023-04-02T03:52:04.394Z,59.21
2023-04-02T03:53:04.441Z,59.09
2023-04-02T03:54:04.458Z,59.18
2023-04-02T03:55:04.496Z,60.11
2023-04-02T03:56:04.490Z,60.67
2023-04-02T03:57:04.562Z,60.63
2023-04-02T03:58:04.533Z,60.95
2023-04-02T03:59:04.577Z,61.25
2023-04-02T04:00:04.631Z,61.28
2023-04-02T04:01:04.626Z,61.27
2023-04-02T04:02:04.716Z,60.93
2023-04-02T04:03:04.769Z,60.94
2023-04-02T04:04:04.773Z,60.53
2023-04-02T04:05:04.750Z,60.17
2023-04-02T04:06:04.745Z,60.11
2023-04-02T04:07:04.771Z,60.36
2023-04-02T04:08:04.774Z,60.60
2023-04-02T04:09:04.838Z,60.67
2023-04-02T04:10:04.985Z,60.83
2023-04-02T04:11:04.943Z,60.57
2023-04-02T04:12:04.936Z,60.85
2023-04-02T04:13:04.970Z,60.85
2023-04-02T04:14:05.041Z,60.67
2023-04-02T04:15:05.092Z,60.53
2023-04-02T04:16:05.220Z,60.39
2023-04-02T04:17:05.068Z,60.74
2023-04-02T04:18:05.117Z,60.97
2023-04-02T04:19:05.230Z,61.57
2023-04-02T04:20:05.177Z,61.58
2023-04-02T04:21:05.239Z,61.73
2023-04-02T04:22:05.248Z,61.61
2023-04-02T04:23:05.312Z,62.13
2023-04-02T04:24:05.311Z,62.46
2023-04-02T04:25:05.384Z,62.48
2023-04-02T04:26:05.425Z,62.32
2023-04-02T04:27:05.454Z,62.04
2023-04-02T04:28:05.703Z,62.26
2023-04-02T04:29:05.556Z,62.34
2023-04-02T04:30:05.576Z,61.81
2023-04-02T04:31:05.650Z,61.54
2023-04-02T04:32:05.641Z,61.61
2023-04-02T04:33:05.781Z,61.47
2023-04-02T04:34:05.667Z,61.90
2023-04-02T04:35:05.715Z,61.45
2023-04-02T04:36:05.750Z,61.30
2023-04-02T04:37:05.743Z,61.34
2023-04-02T04:38:05.768Z,61.00
2023-04-02T04:39:05.820Z,61.26
2023-04-02T04:40:05.828Z,61.14
2023-04-02T04:41:05.878Z,61.18
2023-04-02T04:42:05.903Z,61.30
2023-04-02T04:43:05.976Z,61.38
2023-04-02T04:44:05.979Z,61.04
2023-04-02T04:45:05.976Z,61.07
2023-04-02T04:46:06.018Z,60.99
2023-04-02T04:47:06.018Z,60.95
2023-04-02T04:48:06.083Z,60.74
2023-04-02T04:49:06.073Z,61.04
2023-04-02T04:50:06.169Z,61.35
2023-04-02T04:51:06.163Z,61.64
2023-04-02T04:52:06.203Z,61.71
2023-04-02T04:53:06.211Z,61.63
2023-04-02T04:54:06.262Z,62.07
2023-04-02T04:55:06.268Z,61.69
2023-04-02T04:56:18.756Z,61.42
2023-04-02T04:57:07.346Z,61.62
2023-04-02T04:58:06.302Z,61.64
2023-04-02T04:59:06.381Z,61.45
2023-04-02T05:00:06.312Z,61.65
2023-04-02T05:01:06.339Z,61.89
2023-04-02T05:02:06.306Z,61.98
2023-04-02T05:03:06.290Z,62.27
2023-04-02T05:04:06.260Z,62.56
2023-04-02T05:05:06.244Z,62.59
2023-04-02T05:06:06.260Z,62.95
2023-04-02T05:07:06.269Z,63.54
2023-04-02T05:08:06.284Z,63.43
2023-04-02T05:09:06.228Z,63.80
2023-04-02T05:10:06.202Z,63.92
2023-04-02T05:11:06.263Z,63.88
2023-04-02T05:12:06.275Z,63.72
2023-04-02T05:13:06.331Z,63.79
2023-04-02T05:14:06.356Z,64.33
2023-04-02T05:15:06.397Z,64.31
2023-04-02T05:16:06.441Z,63.66
2023-04-02T05:17:06.418Z,63.87
2023-04-02T05:18:06.509Z,63.57
2023-04-02T05:19:06.496Z,64.31
2023-04-02T05:20:06.519Z,64.83
2023-04-02T05:21:06.608Z,64.66
2023-04-02T05:22:06.568Z,64.66
2023-04-02T05:23:06.591Z,64.84
2023-04-02T05:24:06.645Z,65.12
2023-04-02T05:25:06.685Z,65.17
2023-04-02T05:26:06.737Z,64.94
2023-04-02T05:27:06.792Z,65.13
2023-04-02T05:28:06.814Z,65.03
2023-04-02T05:29:06.794Z,64.14
2023-04-02T05:30:06.862Z,63.69
2023-04-02T05:31:06.930Z,63.18
2023-04-02T05:32:06.911Z,62.73
2023-04-02T05:33:06.957Z,62.26
2023-04-02T05:34:06.937Z,62.18
2023-04-02T05:35:07.001Z,62.13
2023-04-02T05:36:07.050Z,62.15
2023-04-02T05:37:07.306Z,62.24
2023-04-02T05:38:07.117Z,61.93
2023-04-02T05:39:07.157Z,61.92
2023-04-02T05:40:07.186Z,62.06
2023-04-02T05:41:07.200Z,61.81
2023-04-02T05:42:07.261Z,61.41
2023-04-02T05:43:07.302Z,61.26
2023-04-02T05:44:07.352Z,61.34
2023-04-02T05:45:07.323Z,60.80
2023-04-02T05:46:07.388Z,60.46
2023-04-02T05:47:07.386Z,60.35
2023-04-02T05:48:07.460Z,60.11
2023-04-02T05:49:07.414Z,59.99
2023-04-02T05:50:07.451Z,59.77
2023-04-02T05:51:07.428Z,59.53
2023-04-02T05:52:07.471Z,59.77
2023-04-02T05:53:07.490Z,59.81
2023-04-02T05:54:07.545Z,59.74
2023-04-02T05:55:07.546Z,60.06
2023-04-02T05:56:07.635Z,60.16
2023-04-02T05:57:07.784Z,60.14
2023-04-02T05:59:08.660Z,60.38
2023-04-02T06:00:07.642Z,60.37
2023-04-02T06:01:07.685Z,60.18
2023-04-02T06:02:07.729Z,60.45
2023-04-02T06:03:07.880Z,60.49
2023-04-02T06:04:07.665Z,60.28
2023-04-02T06:05:07.624Z,60.30
2023-04-02T06:06:07.595Z,59.82
2023-04-02T06:07:07.624Z,59.73
2023-04-02T06:08:07.627Z,59.51
2023-04-02T06:09:07.593Z,59.79
2023-04-02T06:10:07.611Z,59.99
2023-04-02T06:11:07.589Z,60.05
2023-04-02T06:12:07.581Z,60.38
2023-04-02T06:13:07.580Z,59.92
2023-04-02T06:14:07.614Z,60.03
2023-04-02T06:15:07.606Z,60.66
2023-04-02T06:16:07.668Z,60.96
2023-04-02T06:17:07.707Z,61.74
2023-04-02T06:18:07.763Z,62.03
2023-04-02T06:19:07.746Z,62.00
2023-04-02T06:20:07.776Z,61.79
2023-04-02T06:21:07.820Z,61.47
2023-04-02T06:22:07.836Z,61.21
2023-04-02T06:23:07.838Z,61.19
2023-04-02T06:24:07.915Z,61.27
2023-04-02T06:25:07.933Z,60.50
2023-04-02T06:26:07.971Z,60.41
2023-04-02T06:27:07.991Z,60.08
2023-04-02T06:28:08.041Z,60.33
2023-04-02T06:29:08.098Z,60.60
2023-04-02T06:30:08.102Z,60.17
2023-04-02T06:31:08.138Z,59.93
2023-04-02T06:32:08.173Z,59.54
2023-04-02T06:33:08.180Z,59.27
2023-04-02T06:34:08.237Z,59.27
2023-04-02T06:35:08.217Z,58.66
2023-04-02T06:36:08.319Z,58.18
2023-04-02T06:37:08.321Z,57.74
2023-04-02T06:38:08.355Z,57.70
2023-04-02T06:39:08.390Z,57.35
2023-04-02T06:40:08.426Z,57.42
2023-04-02T06:41:08.492Z,57.35
2023-04-02T06:42:08.486Z,56.79
2023-04-02T06:43:08.551Z,56.73
2023-04-02T06:44:08.546Z,56.55
2023-04-02T06:45:08.564Z,56.79
2023-04-02T06:46:08.726Z,56.53
2023-04-02T06:47:08.600Z,56.04
2023-04-02T06:48:08.722Z,55.96
2023-04-02T06:49:08.664Z,56.00
2023-04-02T06:50:08.700Z,56.06
2023-04-02T06:51:08.739Z,55.49
2023-04-02T06:52:08.724Z,55.28
2023-04-02T06:53:08.741Z,55.13
2023-04-02T06:54:08.780Z,55.23
2023-04-02T06:55:08.881Z,55.16
2023-04-02T06:56:08.831Z,54.65
2023-04-02T06:57:08.882Z,54.92
2023-04-02T06:58:08.900Z,54.87
2023-04-02T06:59:08.936Z,54.57
2023-04-02T07:00:08.912Z,54.44
2023-04-02T07:01:09.003Z,54.56
2023-04-02T07:02:08.967Z,54.59
2023-04-02T07:03:09.068Z,53.98
2023-04-02T07:04:09.054Z,53.47
2023-04-02T07:05:09.269Z,53.32
2023-04-02T07:06:09.133Z,53.08
2023-04-02T07:07:09.143Z,52.84
2023-04-02T07:08:09.152Z,52.98
2023-04-02T07:09:09.186Z,52.59
2023-04-02T07:10:09.293Z,52.27
2023-04-02T07:11:09.265Z,51.84
2023-04-02T07:12:09.341Z,51.50
2023-04-02T07:13:09.344Z,51.60
2023-04-02T07:14:09.370Z,51.05
2023-04-02T07:15:09.387Z,51.03
2023-04-02T07:16:09.542Z,50.66
2023-04-02T07:17:09.489Z,50.22
2023-04-02T07:18:09.586Z,49.96
2023-04-02T07:19:09.559Z,49.78
2023-04-02T07:20:09.562Z,49.68
2023-04-02T07:21:09.598Z,49.48
2023-04-02T07:22:09.642Z,49.22
2023-04-02T07:23:09.690Z,49.27
2023-04-02T07:24:09.694Z,48.81
2023-04-02T07:25:09.720Z,48.65
2023-04-02T07:26:09.764Z,48.50
2023-04-02T07:27:09.801Z,48.79
2023-04-02T07:28:09.763Z,48.19
2023-04-02T07:29:09.852Z,48.66
2023-04-02T07:30:09.853Z,48.45
2023-04-02T07:31:09.916Z,47.94
2023-04-02T07:32:09.907Z,48.43
2023-04-02T07:33:09.990Z,47.82
2023-04-02T07:34:10.033Z,47.42
2023-04-02T07:35:10.059Z,47.17
2023-04-02T07:36:10.089Z,46.82
2023-04-02T07:37:10.106Z,46.21
2023-04-02T07:38:10.138Z,46.41
2023-04-02T07:39:10.187Z,46.16
2023-04-02T07:40:10.215Z,46.08
2023-04-02T07:41:10.265Z,46.09
2023-04-02T07:42:10.273Z,46.30
2023-04-02T07:43:10.320Z,46.06
2023-04-02T07:44:10.346Z,45.96
2023-04-02T07:45:10.355Z,46.06
2023-04-02T07:46:10.458Z,45.97
2023-04-02T07:47:10.466Z,45.66
2023-04-02T07:48:10.473Z,46.04
2023-04-02T07:49:10.497Z,45.86
2023-04-02T07:50:10.498Z,45.10
2023-04-02T07:51:10.535Z,44.94
2023-04-02T07:52:10.559Z,44.88
2023-04-02T07:53:10.573Z,44.56
2023-04-02T07:54:10.613Z,43.88
2023-04-02T07:55:10.632Z,44.22
2023-04-02T07:56:10.687Z,43.64
2023-04-02T07:57:10.748Z,43.58
2023-04-02T07:58:10.898Z,42.59
2023-04-02T07:59:10.944Z,42.07
2023-04-02T08:00:10.964Z,42.18
2023-04-02T08:01:11.022Z,42.29
2023-04-02T08:02:11.075Z,41.87
2023-04-02T08:03:11.113Z,41.97
2023-04-02T08:04:11.113Z,41.80
2023-04-02T08:05:11.049Z,41.86
2023-04-02T08:06:11.095Z,42.25
2023-04-02T08:07:11.120Z,42.02
2023-04-02T08:08:11.145Z,41.79
2023-04-02T08:09:11.225Z,41.97
2023-04-02T08:10:11.240Z,42.28
2023-04-02T08:11:11.278Z,42.36
2023-04-02T08:12:11.294Z,42.16
2023-04-02T08:13:11.341Z,41.17
2023-04-02T08:14:11.356Z,41.67
2023-04-02T08:15:11.408Z,41.58
2023-04-02T08:16:11.534Z,41.46
2023-04-02T08:17:11.576Z,40.81
2023-04-02T08:18:11.519Z,40.83
2023-04-02T08:19:11.544Z,40.44
2023-04-02T08:20:11.558Z,39.69
2023-04-02T08:21:11.613Z,39.21
2023-04-02T08:22:11.647Z,39.14
2023-04-02T08:23:11.669Z,39.21
2023-04-02T08:24:11.727Z,38.91
2023-04-02T08:25:11.776Z,39.17
2023-04-02T08:26:11.817Z,39.11
2023-04-02T08:27:11.863Z,39.53
2023-04-02T08:28:11.891Z,40.04
2023-04-02T08:29:11.934Z,40.47
2023-04-02T08:30:11.977Z,40.64
2023-04-02T08:31:12.057Z,40.72
2023-04-02T08:32:12.091Z,39.68
2023-04-02T08:33:12.131Z,39.61
2023-04-02T08:34:12.102Z,39.44
2023-04-02T08:35:12.113Z,38.70
2023-04-02T08:36:12.146Z,38.62
2023-04-02T08:37:12.164Z,38.02
2023-04-02T08:38:12.196Z,37.71
2023-04-02T08:39:12.242Z,37.55
2023-04-02T08:40:12.236Z,37.19
2023-04-02T08:41:12.243Z,36.94
2023-04-02T08:42:12.283Z,37.64
2023-04-02T08:43:12.321Z,37.26
2023-04-02T08:44:12.309Z,36.81
2023-04-02T08:45:24.207Z,36.57
2023-04-02T08:46:13.375Z,36.03
2023-04-02T08:47:12.383Z,36.43
2023-04-02T08:48:12.394Z,35.43
2023-04-02T08:49:12.365Z,36.00
2023-04-02T08:50:12.365Z,36.07
2023-04-02T08:51:12.335Z,35.61
2023-04-02T08:52:12.347Z,34.79
2023-04-02T08:53:12.312Z,34.24
2023-04-02T08:54:12.339Z,33.57
2023-04-02T08:55:12.343Z,34.26
2023-04-02T08:56:12.313Z,34.44
2023-04-02T08:57:12.345Z,34.38
2023-04-02T08:58:12.294Z,34.02
2023-04-02T08:59:12.252Z,35.36
2023-04-02T09:00:12.254Z,36.49
2023-04-02T09:01:12.260Z,36.19
2023-04-02T09:02:12.274Z,35.73
2023-04-02T09:03:12.299Z,35.08
2023-04-02T09:04:12.359Z,36.12
2023-04-02T09:05:12.626Z,35.61
2023-04-02T09:06:13.388Z,37.37
2023-04-02T09:07:12.506Z,36.45
2023-04-02T09:08:12.553Z,35.23
2023-04-02T09:09:12.627Z,35.00
2023-04-02T09:10:12.633Z,34.67
2023-04-02T09:11:12.671Z,35.36
2023-04-02T09:12:12.722Z,36.63
2023-04-02T09:13:12.745Z,36.58
2023-04-02T09:14:12.758Z,37.92
2023-04-02T09:15:12.771Z,37.26
2023-04-02T09:16:12.849Z,36.68
2023-04-02T09:17:12.823Z,35.47
2023-04-02T09:18:12.904Z,35.55
2023-04-02T09:19:12.893Z,35.18
2023-04-02T09:20:12.935Z,33.89
2023-04-02T09:21:12.976Z,33.84
2023-04-02T09:22:12.965Z,33.09
2023-04-02T09:23:13.018Z,32.65
2023-04-02T09:24:13.078Z,32.56
2023-04-02T09:25:13.081Z,31.75
2023-04-02T09:26:13.133Z,30.57
2023-04-02T09:27:13.175Z,30.56
2023-04-02T09:28:13.189Z,30.74
2023-04-02T09:29:13.305Z,30.27
2023-04-02T09:30:13.275Z,30.60
2023-04-02T09:31:13.396Z,30.13
2023-04-02T09:32:13.326Z,29.53
2023-04-02T09:33:13.341Z,29.76
2023-04-02T09:34:13.352Z,28.47
2023-04-02T09:35:24.783Z,28.74
2023-04-02T09:36:16.071Z,28.72
2023-04-02T09:37:13.370Z,29.05
2023-04-02T09:38:13.371Z,30.44
2023-04-02T09:39:13.366Z,30.08
2023-04-02T09:40:13.325Z,29.74
2023-04-02T09:41:13.334Z,29.91
2023-04-02T09:42:13.345Z,28.96
2023-04-02T09:43:13.349Z,29.29
2023-04-02T09:44:13.334Z,29.53
2023-04-02T09:45:13.312Z,28.37
2023-04-02T09:46:13.340Z,28.79
2023-04-02T09:47:13.313Z,28.50
2023-04-02T09:48:13.355Z,27.93
2023-04-02T09:49:13.288Z,27.00
2023-04-02T09:50:13.299Z,27.04
2023-04-02T09:51:13.310Z,27.68
2023-04-02T09:52:13.283Z,27.29
2023-04-02T09:53:13.264Z,27.39
2023-04-02T09:54:13.250Z,28.03
2023-04-02T09:55:13.227Z,27.87
2023-04-02T09:56:13.244Z,28.13
2023-04-02T09:57:13.292Z,28.48
2023-04-02T09:58:13.249Z,28.27
2023-04-02T09:59:13.231Z,28.52
2023-04-02T10:00:25.384Z,29.31
2023-04-02T10:01:14.230Z,29.32
2023-04-02T10:02:13.189Z,28.75
2023-04-02T10:03:13.177Z,28.79
2023-04-02T10:04:13.258Z,29.13
2023-04-02T10:05:13.716Z,28.57
2023-04-02T10:06:13.193Z,28.66
2023-04-02T10:07:13.202Z,28.52
2023-04-02T10:08:13.205Z,28.01
2023-04-02T10:09:13.124Z,28.47
2023-04-02T10:10:13.231Z,29.27
2023-04-02T10:11:13.153Z,29.40
2023-04-02T10:12:13.152Z,29.37
2023-04-02T10:13:13.207Z,29.63
2023-04-02T10:14:13.240Z,29.81
2023-04-02T10:15:13.240Z,30.11
2023-04-02T10:16:13.358Z,30.09
2023-04-02T10:17:13.502Z,30.74
2023-04-02T10:18:13.308Z,31.09
2023-04-02T10:19:13.327Z,30.94
2023-04-02T10:20:13.434Z,30.99
2023-04-02T10:21:13.352Z,31.46
2023-04-02T10:22:13.402Z,31.67
2023-04-02T10:23:13.445Z,31.97
2023-04-02T10:24:13.450Z,32.24
2023-04-02T10:25:13.468Z,32.40
2023-04-02T10:26:13.474Z,32.42
2023-04-02T10:27:13.568Z,31.99
2023-04-02T10:28:13.549Z,32.14
2023-04-02T10:29:13.580Z,31.17
2023-04-02T10:30:13.594Z,31.10
2023-04-02T10:31:13.670Z,30.78
2023-04-02T10:32:13.660Z,31.23
2023-04-02T10:33:13.690Z,30.33
2023-04-02T10:34:13.724Z,30.47
2023-04-02T10:35:13.752Z,30.72
2023-04-02T10:36:13.823Z,30.91
2023-04-02T10:37:13.848Z,31.38
2023-04-02T10:38:13.799Z,31.05
2023-04-02T10:39:13.856Z,30.38
2023-04-02T10:40:13.884Z,29.66
2023-04-02T10:41:13.900Z,29.54
2023-04-02T10:42:13.883Z,29.14
2023-04-02T10:43:13.940Z,29.13
2023-04-02T10:44:20.234Z,29.71
2023-04-02T10:45:14.922Z,29.65
2023-04-02T10:46:13.941Z,29.59
2023-04-02T10:47:13.927Z,29.53
2023-04-02T10:48:13.944Z,29.60
2023-04-02T10:49:13.928Z,29.55
2023-04-02T10:50:13.883Z,29.74
2023-04-02T10:51:14.191Z,29.35
2023-04-02T10:52:13.890Z,29.71
2023-04-02T10:53:13.844Z,29.12
2023-04-02T10:54:13.917Z,28.50
2023-04-02T10:55:13.859Z,29.88
2023-04-02T10:56:13.843Z,29.68
2023-04-02T10:57:13.887Z,28.95
2023-04-02T10:58:13.887Z,29.40
2023-04-02T10:59:13.903Z,29.45
2023-04-02T11:00:13.932Z,29.21
2023-04-02T11:01:13.965Z,30.16
2023-04-02T11:02:14.024Z,29.76
2023-04-02T11:03:14.150Z,28.89
2023-04-02T11:04:14.342Z,29.14
2023-04-02T11:05:14.165Z,29.37
2023-04-02T11:06:14.125Z,29.62
2023-04-02T11:07:14.988Z,29.25
2023-04-02T11:08:15.176Z,29.09
2023-04-02T11:09:14.199Z,28.94
2023-04-02T11:10:14.238Z,28.62
2023-04-02T11:11:14.315Z,28.53
2023-04-02T11:12:14.323Z,29.05
2023-04-02T11:13:14.338Z,28.72
2023-04-02T11:14:14.410Z,28.93
2023-04-02T11:15:14.421Z,29.48
2023-04-02T11:16:14.528Z,29.30
2023-04-02T11:17:14.453Z,28.74
2023-04-02T11:18:14.466Z,27.88
2023-04-02T11:19:14.531Z,27.54
2023-04-02T11:20:14.554Z,28.82
2023-04-02T11:21:14.582Z,28.19
2023-04-02T11:22:14.649Z,28.42
2023-04-02T11:23:14.655Z,28.95
2023-04-02T11:24:14.701Z,28.89
2023-04-02T11:25:14.742Z,29.01
2023-04-02T11:26:14.786Z,29.20
2023-04-02T11:27:14.822Z,29.48
2023-04-02T11:28:14.828Z,29.65
2023-04-02T11:29:14.855Z,29.80
2023-04-02T11:30:14.878Z,30.10
2023-04-02T11:31:15.013Z,29.54
2023-04-02T11:32:15.001Z,29.82
2023-04-02T11:33:18.660Z,29.55
2023-04-02T11:34:16.022Z,28.66
2023-04-02T11:35:15.016Z,28.90
2023-04-02T11:36:15.076Z,29.34
2023-04-02T11:37:14.990Z,29.34
2023-04-02T11:38:15.002Z,29.41
2023-04-02T11:39:17.419Z,30.08
2023-04-02T11:40:15.157Z,29.90
2023-04-02T11:41:15.233Z,29.01
2023-04-02T11:42:15.232Z,29.11
2023-04-02T11:43:15.245Z,29.75
2023-04-02T11:44:15.323Z,29.83
2023-04-02T11:45:15.347Z,29.91
2023-04-02T11:46:15.406Z,29.75
2023-04-02T11:47:15.394Z,29.69
2023-04-02T11:48:15.466Z,29.22
2023-04-02T11:49:15.473Z,29.32
2023-04-02T11:50:15.500Z,29.69
2023-04-02T11:51:15.492Z,29.76
2023-04-02T11:52:15.544Z,29.32
2023-04-02T11:53:15.543Z,29.35
2023-04-02T11:54:15.645Z,29.65
2023-04-02T11:55:15.626Z,29.64
2023-04-02T11:56:15.666Z,29.77
2023-04-02T11:57:15.798Z,29.66
2023-04-02T11:58:15.747Z,29.71
2023-04-02T11:59:15.763Z,29.12
2023-04-02T12:00:17.968Z,29.09
2023-04-02T12:01:15.860Z,29.48
2023-04-02T12:02:15.891Z,29.61
2023-04-02T12:03:15.997Z,30.21
2023-04-02T12:04:15.914Z,30.30
2023-04-02T12:05:15.962Z,30.30
2023-04-02T12:06:15.995Z,29.87
2023-04-02T12:07:16.038Z,30.45
2023-04-02T12:08:16.049Z,29.55
2023-04-02T12:09:16.123Z,29.28
2023-04-02T12:10:16.112Z,29.50
2023-04-02T12:11:16.133Z,29.57
2023-04-02T12:12:16.159Z,29.28
2023-04-02T12:13:16.217Z,29.65
2023-04-02T12:14:16.245Z,29.28
2023-04-02T12:15:16.289Z,29.70
2023-04-02T12:16:16.332Z,29.14
2023-04-02T12:17:16.449Z,29.30
2023-04-02T12:18:16.384Z,29.54
2023-04-02T12:19:16.415Z,29.32
2023-04-02T12:20:16.435Z,29.55
2023-04-02T12:21:16.496Z,29.32
2023-04-02T12:22:16.556Z,29.74
2023-04-02T12:23:16.613Z,29.05
2023-04-02T12:24:16.616Z,29.14
2023-04-02T12:25:16.617Z,29.25
2023-04-02T12:26:16.692Z,29.31
2023-04-02T12:27:16.712Z,29.09
2023-04-02T12:28:16.745Z,28.38
2023-04-02T12:29:16.788Z,28.50
2023-04-02T12:30:16.789Z,28.99
2023-04-02T12:31:16.944Z,29.72
2023-04-02T12:32:16.870Z,29.75
2023-04-02T12:33:16.923Z,29.94
2023-04-02T12:34:16.952Z,29.43
2023-04-02T12:35:16.941Z,29.45
2023-04-02T12:36:17.083Z,29.94
2023-04-02T12:37:17.019Z,29.87
2023-04-02T12:38:17.042Z,29.85
2023-04-02T12:39:17.093Z,29.35
2023-04-02T12:40:17.149Z,29.49
2023-04-02T12:41:17.151Z,29.28
2023-04-02T12:42:17.213Z,29.52
2023-04-02T12:43:17.215Z,29.50
2023-04-02T12:44:17.264Z,28.46
2023-04-02T12:45:17.230Z,28.78
2023-04-02T12:46:17.304Z,29.42
2023-04-02T12:47:17.309Z,29.00
2023-04-02T12:48:17.312Z,28.83
2023-04-02T12:49:17.321Z,29.73
2023-04-02T12:50:17.346Z,29.44
2023-04-02T12:51:17.719Z,29.84
2023-04-02T12:52:17.377Z,30.23
2023-04-02T12:53:17.440Z,29.25
2023-04-02T12:54:17.473Z,30.30